sensor_id;sensor_type;location;lat;lon;timestamp;P1;durP1;ratioP1;P2;durP2;ratioP2
47489;SDS011;33226;56.996;14.584;2022-09-27T00:02:18;3.25;;;2.17;;
47489;SDS011;33226;56.996;14.584;2022-09-27T00:04:44;4.70;;;2.40;;
47489;SDS011;33226;56.996;14.584;2022-09-27T00:07:10;2.28;;;2.03;;
47489;SDS011;33226;56.996;14.584;2022-09-27T00:09:36;3.13;;;2.67;;
47489;SDS011;33226;56.996;14.584;2022-09-27T00:12:02;3.15;;;2.03;;
47489;SDS011;33226;56.996;14.584;2022-09-27T00:14:28;2.30;;;2.15;;
47489;SDS011;33226;56.996;14.584;2022-09-27T00:16:54;4.93;;;2.45;;
47489;SDS011;33226;56.996;14.584;2022-09-27T00:19:20;5.20;;;2.35;;
47489;SDS011;33226;56.996;14.584;2022-09-27T00:21:48;3.83;;;2.00;;
47489;SDS011;33226;56.996;14.584;2022-09-27T00:24:15;3.95;;;2.45;;
47489;SDS011;33226;56.996;14.584;2022-09-27T00:26:43;4.18;;;2.40;;
47489;SDS011;33226;56.996;14.584;2022-09-27T00:29:10;5.25;;;2.10;;
47489;SDS011;33226;56.996;14.584;2022-09-27T00:31:37;5.80;;;2.17;;
47489;SDS011;33226;56.996;14.584;2022-09-27T00:34:03;4.05;;;2.70;;
47489;SDS011;33226;56.996;14.584;2022-09-27T00:36:29;2.38;;;2.17;;
47489;SDS011;33226;56.996;14.584;2022-09-27T00:38:56;3.67;;;2.50;;
47489;SDS011;33226;56.996;14.584;2022-09-27T00:41:28;4.90;;;2.50;;
47489;SDS011;33226;56.996;14.584;2022-09-27T00:46:59;2.20;;;2.00;;
47489;SDS011;33226;56.996;14.584;2022-09-27T00:49:29;3.30;;;2.30;;
47489;SDS011;33226;56.996;14.584;2022-09-27T00:52:08;2.15;;;1.90;;
47489;SDS011;33226;56.996;14.584;2022-09-27T00:54:35;2.78;;;2.25;;
47489;SDS011;33226;56.996;14.584;2022-09-27T00:57:06;3.05;;;2.15;;
47489;SDS011;33226;56.996;14.584;2022-09-27T00:59:33;2.40;;;2.20;;
47489;SDS011;33226;56.996;14.584;2022-09-27T01:02:04;2.97;;;2.22;;
47489;SDS011;33226;56.996;14.584;2022-09-27T01:04:31;3.28;;;2.03;;
47489;SDS011;33226;56.996;14.584;2022-09-27T01:06:58;2.25;;;1.92;;
47489;SDS011;33226;56.996;14.584;2022-09-27T01:09:24;2.78;;;2.25;;
47489;SDS011;33226;56.996;14.584;2022-09-27T01:12:10;3.30;;;2.30;;
47489;SDS011;33226;56.996;14.584;2022-09-27T01:37:01;3.00;;;2.10;;
47489;SDS011;33226;56.996;14.584;2022-09-27T01:44:50;6.10;;;2.20;;
47489;SDS011;33226;56.996;14.584;2022-09-27T01:47:41;5.85;;;2.60;;
47489;SDS011;33226;56.996;14.584;2022-09-27T01:50:13;3.47;;;2.25;;
47489;SDS011;33226;56.996;14.584;2022-09-27T01:52:47;3.47;;;1.92;;
47489;SDS011;33226;56.996;14.584;2022-09-27T01:55:18;3.28;;;2.20;;
47489;SDS011;33226;56.996;14.584;2022-09-27T01:57:54;4.45;;;2.20;;
47489;SDS011;33226;56.996;14.584;2022-09-27T02:00:31;8.05;;;2.40;;
47489;SDS011;33226;56.996;14.584;2022-09-27T02:02:58;3.13;;;2.35;;
47489;SDS011;33226;56.996;14.584;2022-09-27T02:05:34;4.10;;;2.00;;
47489;SDS011;33226;56.996;14.584;2022-09-27T02:08:55;2.75;;;2.40;;
47489;SDS011;33226;56.996;14.584;2022-09-27T02:11:01;3.47;;;2.40;;
47489;SDS011;33226;56.996;14.584;2022-09-27T02:13:35;5.53;;;2.40;;
47489;SDS011;33226;56.996;14.584;2022-09-27T02:16:22;3.50;;;2.40;;
47489;SDS011;33226;56.996;14.584;2022-09-27T02:18:56;4.35;;;2.30;;
47489;SDS011;33226;56.996;14.584;2022-09-27T02:21:48;3.50;;;2.22;;
47489;SDS011;33226;56.996;14.584;2022-09-27T02:24:41;2.85;;;2.30;;
47489;SDS011;33226;56.996;14.584;2022-09-27T02:27:16;4.15;;;2.60;;
47489;SDS011;33226;56.996;14.584;2022-09-27T02:29:52;4.03;;;2.17;;
47489;SDS011;33226;56.996;14.584;2022-09-27T02:32:31;4.10;;;2.38;;
47489;SDS011;33226;56.996;14.584;2022-09-27T02:34:58;3.97;;;2.38;;
47489;SDS011;33226;56.996;14.584;2022-09-27T02:37:27;3.95;;;2.38;;
47489;SDS011;33226;56.996;14.584;2022-09-27T02:39:54;2.38;;;2.05;;
47489;SDS011;33226;56.996;14.584;2022-09-27T02:42:21;3.17;;;2.40;;
47489;SDS011;33226;56.996;14.584;2022-09-27T02:44:46;3.05;;;2.40;;
47489;SDS011;33226;56.996;14.584;2022-09-27T02:55:18;3.15;;;2.38;;
47489;SDS011;33226;56.996;14.584;2022-09-27T02:57:56;4.97;;;2.60;;
47489;SDS011;33226;56.996;14.584;2022-09-27T03:00:36;3.80;;;2.40;;
47489;SDS011;33226;56.996;14.584;2022-09-27T03:03:25;3.03;;;2.47;;
47489;SDS011;33226;56.996;14.584;2022-09-27T03:06:07;2.70;;;2.50;;
47489;SDS011;33226;56.996;14.584;2022-09-27T03:08:36;4.22;;;2.70;;
47489;SDS011;33226;56.996;14.584;2022-09-27T03:11:02;2.78;;;2.58;;
47489;SDS011;33226;56.996;14.584;2022-09-27T03:13:28;2.90;;;2.30;;
47489;SDS011;33226;56.996;14.584;2022-09-27T03:15:54;4.65;;;2.65;;
47489;SDS011;33226;56.996;14.584;2022-09-27T03:18:20;7.38;;;2.80;;
47489;SDS011;33226;56.996;14.584;2022-09-27T03:20:46;3.10;;;2.80;;
47489;SDS011;33226;56.996;14.584;2022-09-27T03:23:11;5.85;;;2.90;;
47489;SDS011;33226;56.996;14.584;2022-09-27T03:25:37;5.57;;;2.40;;
47489;SDS011;33226;56.996;14.584;2022-09-27T03:28:03;4.85;;;2.60;;
47489;SDS011;33226;56.996;14.584;2022-09-27T03:30:28;7.53;;;2.90;;
47489;SDS011;33226;56.996;14.584;2022-09-27T03:32:54;6.03;;;2.45;;
47489;SDS011;33226;56.996;14.584;2022-09-27T03:35:20;3.40;;;2.67;;
47489;SDS011;33226;56.996;14.584;2022-09-27T03:37:45;3.88;;;2.58;;
47489;SDS011;33226;56.996;14.584;2022-09-27T03:40:11;5.20;;;2.92;;
47489;SDS011;33226;56.996;14.584;2022-09-27T03:42:37;3.75;;;2.55;;
47489;SDS011;33226;56.996;14.584;2022-09-27T03:45:03;2.40;;;2.20;;
47489;SDS011;33226;56.996;14.584;2022-09-27T03:47:29;5.55;;;2.33;;
47489;SDS011;33226;56.996;14.584;2022-09-27T03:49:55;4.05;;;2.50;;
47489;SDS011;33226;56.996;14.584;2022-09-27T03:52:21;5.97;;;2.85;;
47489;SDS011;33226;56.996;14.584;2022-09-27T03:54:46;2.75;;;2.53;;
47489;SDS011;33226;56.996;14.584;2022-09-27T03:57:12;2.70;;;2.50;;
47489;SDS011;33226;56.996;14.584;2022-09-27T03:59:38;4.80;;;2.40;;
47489;SDS011;33226;56.996;14.584;2022-09-27T04:02:04;7.22;;;2.80;;
47489;SDS011;33226;56.996;14.584;2022-09-27T04:04:29;5.30;;;2.50;;
47489;SDS011;33226;56.996;14.584;2022-09-27T04:06:55;2.60;;;2.40;;
47489;SDS011;33226;56.996;14.584;2022-09-27T04:09:21;6.43;;;2.33;;
47489;SDS011;33226;56.996;14.584;2022-09-27T04:11:47;2.80;;;2.30;;
47489;SDS011;33226;56.996;14.584;2022-09-27T04:14:13;2.85;;;2.40;;
47489;SDS011;33226;56.996;14.584;2022-09-27T04:16:38;2.45;;;2.25;;
47489;SDS011;33226;56.996;14.584;2022-09-27T04:19:05;5.35;;;2.60;;
47489;SDS011;33226;56.996;14.584;2022-09-27T04:21:32;4.47;;;2.50;;
47489;SDS011;33226;56.996;14.584;2022-09-27T04:23:58;2.90;;;2.40;;
47489;SDS011;33226;56.996;14.584;2022-09-27T04:26:24;5.57;;;2.70;;
47489;SDS011;33226;56.996;14.584;2022-09-27T04:28:50;5.18;;;2.65;;
47489;SDS011;33226;56.996;14.584;2022-09-27T04:31:16;5.18;;;2.80;;
47489;SDS011;33226;56.996;14.584;2022-09-27T04:33:42;5.28;;;2.70;;
47489;SDS011;33226;56.996;14.584;2022-09-27T04:36:10;3.33;;;2.38;;
47489;SDS011;33226;56.996;14.584;2022-09-27T04:38:55;3.50;;;2.40;;
47489;SDS011;33226;56.996;14.584;2022-09-27T04:41:23;4.80;;;3.03;;
47489;SDS011;33226;56.996;14.584;2022-09-27T04:43:50;3.88;;;2.80;;
47489;SDS011;33226;56.996;14.584;2022-09-27T04:46:16;6.85;;;2.45;;
47489;SDS011;33226;56.996;14.584;2022-09-27T04:48:42;7.47;;;2.92;;
47489;SDS011;33226;56.996;14.584;2022-09-27T04:51:08;6.93;;;2.90;;
47489;SDS011;33226;56.996;14.584;2022-09-27T04:53:34;7.40;;;2.90;;
47489;SDS011;33226;56.996;14.584;2022-09-27T04:56:00;4.55;;;3.00;;
47489;SDS011;33226;56.996;14.584;2022-09-27T04:58:30;4.88;;;3.15;;
47489;SDS011;33226;56.996;14.584;2022-09-27T05:00:57;5.63;;;3.20;;
47489;SDS011;33226;56.996;14.584;2022-09-27T05:03:23;5.68;;;3.60;;
47489;SDS011;33226;56.996;14.584;2022-09-27T05:05:49;7.47;;;3.47;;
47489;SDS011;33226;56.996;14.584;2022-09-27T05:08:15;4.53;;;3.10;;
47489;SDS011;33226;56.996;14.584;2022-09-27T05:10:40;3.65;;;3.35;;
47489;SDS011;33226;56.996;14.584;2022-09-27T05:13:06;4.82;;;3.70;;
47489;SDS011;33226;56.996;14.584;2022-09-27T05:15:32;4.47;;;3.20;;
47489;SDS011;33226;56.996;14.584;2022-09-27T05:17:58;11.00;;;3.80;;
47489;SDS011;33226;56.996;14.584;2022-09-27T05:20:24;5.95;;;4.10;;
47489;SDS011;33226;56.996;14.584;2022-09-27T05:22:50;7.55;;;4.40;;
47489;SDS011;33226;56.996;14.584;2022-09-27T05:25:16;7.20;;;4.18;;
47489;SDS011;33226;56.996;14.584;2022-09-27T05:27:42;9.70;;;4.47;;
47489;SDS011;33226;56.996;14.584;2022-09-27T05:30:08;6.30;;;4.20;;
47489;SDS011;33226;56.996;14.584;2022-09-27T05:32:35;9.43;;;4.38;;
47489;SDS011;33226;56.996;14.584;2022-09-27T05:35:05;6.07;;;4.20;;
47489;SDS011;33226;56.996;14.584;2022-09-27T05:37:31;6.68;;;4.47;;
47489;SDS011;33226;56.996;14.584;2022-09-27T05:39:58;5.28;;;4.40;;
47489;SDS011;33226;56.996;14.584;2022-09-27T05:42:23;12.50;;;4.30;;
47489;SDS011;33226;56.996;14.584;2022-09-27T05:44:49;6.78;;;4.40;;
47489;SDS011;33226;56.996;14.584;2022-09-27T05:47:14;8.18;;;4.53;;
47489;SDS011;33226;56.996;14.584;2022-09-27T05:49:40;9.20;;;4.90;;
47489;SDS011;33226;56.996;14.584;2022-09-27T05:52:06;8.05;;;5.10;;
47489;SDS011;33226;56.996;14.584;2022-09-27T05:54:31;8.60;;;4.95;;
47489;SDS011;33226;56.996;14.584;2022-09-27T05:56:57;5.43;;;4.93;;
47489;SDS011;33226;56.996;14.584;2022-09-27T05:59:24;9.82;;;5.65;;
47489;SDS011;33226;56.996;14.584;2022-09-27T06:01:50;9.75;;;6.18;;
47489;SDS011;33226;56.996;14.584;2022-09-27T06:04:16;9.63;;;5.38;;
47489;SDS011;33226;56.996;14.584;2022-09-27T06:06:43;11.05;;;5.78;;
47489;SDS011;33226;56.996;14.584;2022-09-27T06:09:09;9.82;;;5.55;;
47489;SDS011;33226;56.996;14.584;2022-09-27T06:11:36;11.13;;;6.32;;
47489;SDS011;33226;56.996;14.584;2022-09-27T06:14:02;10.90;;;5.88;;
47489;SDS011;33226;56.996;14.584;2022-09-27T06:16:28;12.77;;;5.28;;
47489;SDS011;33226;56.996;14.584;2022-09-27T06:18:54;10.65;;;5.97;;
47489;SDS011;33226;56.996;14.584;2022-09-27T06:21:19;13.43;;;6.10;;
47489;SDS011;33226;56.996;14.584;2022-09-27T06:23:46;9.57;;;6.28;;
47489;SDS011;33226;56.996;14.584;2022-09-27T06:26:12;8.90;;;6.03;;
47489;SDS011;33226;56.996;14.584;2022-09-27T06:28:38;10.88;;;6.38;;
47489;SDS011;33226;56.996;14.584;2022-09-27T06:31:04;14.23;;;6.57;;
47489;SDS011;33226;56.996;14.584;2022-09-27T06:33:32;10.48;;;5.97;;
47489;SDS011;33226;56.996;14.584;2022-09-27T06:36:01;11.75;;;6.68;;
47489;SDS011;33226;56.996;14.584;2022-09-27T06:38:27;8.25;;;5.95;;
47489;SDS011;33226;56.996;14.584;2022-09-27T06:40:53;14.40;;;6.70;;
47489;SDS011;33226;56.996;14.584;2022-09-27T06:43:22;8.60;;;5.95;;
47489;SDS011;33226;56.996;14.584;2022-09-27T06:45:50;9.95;;;5.90;;
47489;SDS011;33226;56.996;14.584;2022-09-27T06:48:15;8.93;;;5.97;;
47489;SDS011;33226;56.996;14.584;2022-09-27T06:50:42;7.82;;;5.80;;
47489;SDS011;33226;56.996;14.584;2022-09-27T06:53:09;9.18;;;6.10;;
47489;SDS011;33226;56.996;14.584;2022-09-27T06:55:36;9.38;;;5.68;;
47489;SDS011;33226;56.996;14.584;2022-09-27T06:58:03;8.65;;;5.65;;
47489;SDS011;33226;56.996;14.584;2022-09-27T07:03:13;10.45;;;5.10;;
47489;SDS011;33226;56.996;14.584;2022-09-27T07:05:39;16.25;;;5.25;;
47489;SDS011;33226;56.996;14.584;2022-09-27T07:08:08;11.80;;;4.85;;
47489;SDS011;33226;56.996;14.584;2022-09-27T07:10:36;8.93;;;4.78;;
47489;SDS011;33226;56.996;14.584;2022-09-27T07:13:03;10.73;;;5.45;;
47489;SDS011;33226;56.996;14.584;2022-09-27T07:15:29;8.50;;;4.88;;
47489;SDS011;33226;56.996;14.584;2022-09-27T07:17:56;7.97;;;4.72;;
47489;SDS011;33226;56.996;14.584;2022-09-27T07:20:23;7.50;;;4.55;;
47489;SDS011;33226;56.996;14.584;2022-09-27T07:22:50;8.55;;;4.35;;
47489;SDS011;33226;56.996;14.584;2022-09-27T07:25:16;14.63;;;4.88;;
47489;SDS011;33226;56.996;14.584;2022-09-27T07:27:42;6.95;;;4.32;;
47489;SDS011;33226;56.996;14.584;2022-09-27T07:30:08;7.68;;;4.13;;
47489;SDS011;33226;56.996;14.584;2022-09-27T07:32:36;6.10;;;3.63;;
47489;SDS011;33226;56.996;14.584;2022-09-27T07:35:05;8.88;;;3.92;;
47489;SDS011;33226;56.996;14.584;2022-09-27T07:37:32;5.38;;;3.60;;
47489;SDS011;33226;56.996;14.584;2022-09-27T07:40:00;6.30;;;3.60;;
47489;SDS011;33226;56.996;14.584;2022-09-27T07:42:26;6.07;;;3.45;;
47489;SDS011;33226;56.996;14.584;2022-09-27T07:44:56;8.23;;;3.22;;
47489;SDS011;33226;56.996;14.584;2022-09-27T07:47:22;7.47;;;3.65;;
47489;SDS011;33226;56.996;14.584;2022-09-27T07:49:48;4.70;;;3.30;;
47489;SDS011;33226;56.996;14.584;2022-09-27T07:52:17;4.53;;;2.92;;
47489;SDS011;33226;56.996;14.584;2022-09-27T07:54:44;6.03;;;3.30;;
47489;SDS011;33226;56.996;14.584;2022-09-27T07:57:13;6.47;;;3.20;;
47489;SDS011;33226;56.996;14.584;2022-09-27T07:59:39;7.13;;;3.78;;
47489;SDS011;33226;56.996;14.584;2022-09-27T08:02:05;6.32;;;3.42;;
47489;SDS011;33226;56.996;14.584;2022-09-27T08:04:35;7.05;;;3.33;;
47489;SDS011;33226;56.996;14.584;2022-09-27T08:07:00;4.72;;;3.05;;
47489;SDS011;33226;56.996;14.584;2022-09-27T08:09:26;3.75;;;2.90;;
47489;SDS011;33226;56.996;14.584;2022-09-27T08:11:54;4.32;;;3.30;;
47489;SDS011;33226;56.996;14.584;2022-09-27T08:14:22;8.57;;;2.78;;
47489;SDS011;33226;56.996;14.584;2022-09-27T08:16:48;6.25;;;2.75;;
47489;SDS011;33226;56.996;14.584;2022-09-27T08:19:15;6.38;;;2.83;;
47489;SDS011;33226;56.996;14.584;2022-09-27T08:21:42;8.18;;;3.38;;
47489;SDS011;33226;56.996;14.584;2022-09-27T08:24:07;5.80;;;3.00;;
47489;SDS011;33226;56.996;14.584;2022-09-27T08:26:33;6.22;;;2.75;;
47489;SDS011;33226;56.996;14.584;2022-09-27T08:28:59;4.60;;;3.00;;
47489;SDS011;33226;56.996;14.584;2022-09-27T08:31:24;6.20;;;2.92;;
47489;SDS011;33226;56.996;14.584;2022-09-27T08:33:50;4.90;;;2.65;;
47489;SDS011;33226;56.996;14.584;2022-09-27T08:36:17;4.03;;;2.60;;
47489;SDS011;33226;56.996;14.584;2022-09-27T08:38:46;4.05;;;2.67;;
47489;SDS011;33226;56.996;14.584;2022-09-27T08:49:51;5.22;;;2.25;;
47489;SDS011;33226;56.996;14.584;2022-09-27T08:52:00;4.38;;;2.28;;
47489;SDS011;33226;56.996;14.584;2022-09-27T08:54:30;6.70;;;2.30;;
47489;SDS011;33226;56.996;14.584;2022-09-27T08:56:57;3.10;;;1.92;;
47489;SDS011;33226;56.996;14.584;2022-09-27T08:59:42;3.70;;;2.40;;
47489;SDS011;33226;56.996;14.584;2022-09-27T09:02:21;7.72;;;2.40;;
47489;SDS011;33226;56.996;14.584;2022-09-27T09:04:50;3.08;;;2.60;;
47489;SDS011;33226;56.996;14.584;2022-09-27T09:15:26;3.58;;;2.60;;
47489;SDS011;33226;56.996;14.584;2022-09-27T09:17:59;2.95;;;2.45;;
47489;SDS011;33226;56.996;14.584;2022-09-27T09:23:32;5.40;;;2.72;;
47489;SDS011;33226;56.996;14.584;2022-09-27T09:26:30;5.28;;;2.55;;
47489;SDS011;33226;56.996;14.584;2022-09-27T09:34:51;5.45;;;2.70;;
47489;SDS011;33226;56.996;14.584;2022-09-27T09:37:29;3.58;;;2.50;;
47489;SDS011;33226;56.996;14.584;2022-09-27T09:40:13;7.43;;;2.80;;
47489;SDS011;33226;56.996;14.584;2022-09-27T09:45:33;4.38;;;3.20;;
47489;SDS011;33226;56.996;14.584;2022-09-27T09:50:52;7.28;;;3.05;;
47489;SDS011;33226;56.996;14.584;2022-09-27T09:53:39;10.15;;;3.03;;
47489;SDS011;33226;56.996;14.584;2022-09-27T09:56:30;4.55;;;2.60;;
47489;SDS011;33226;56.996;14.584;2022-09-27T09:59:01;4.90;;;2.70;;
47489;SDS011;33226;56.996;14.584;2022-09-27T10:01:44;2.97;;;1.90;;
47489;SDS011;33226;56.996;14.584;2022-09-27T10:04:19;5.15;;;1.95;;
47489;SDS011;33226;56.996;14.584;2022-09-27T10:06:56;2.85;;;2.03;;
47489;SDS011;33226;56.996;14.584;2022-09-27T10:09:25;2.40;;;1.88;;
47489;SDS011;33226;56.996;14.584;2022-09-27T10:11:52;2.85;;;1.60;;
47489;SDS011;33226;56.996;14.584;2022-09-27T10:14:19;2.65;;;1.55;;
47489;SDS011;33226;56.996;14.584;2022-09-27T10:16:53;3.40;;;1.70;;
47489;SDS011;33226;56.996;14.584;2022-09-27T10:19:29;3.83;;;1.92;;
47489;SDS011;33226;56.996;14.584;2022-09-27T10:21:58;2.03;;;1.80;;
47489;SDS011;33226;56.996;14.584;2022-09-27T10:24:52;4.57;;;1.80;;
47489;SDS011;33226;56.996;14.584;2022-09-27T10:27:21;2.47;;;1.70;;
47489;SDS011;33226;56.996;14.584;2022-09-27T10:29:54;3.60;;;1.88;;
47489;SDS011;33226;56.996;14.584;2022-09-27T10:32:29;3.70;;;2.00;;
47489;SDS011;33226;56.996;14.584;2022-09-27T10:35:31;7.07;;;2.03;;
47489;SDS011;33226;56.996;14.584;2022-09-27T10:40:51;5.00;;;1.95;;
47489;SDS011;33226;56.996;14.584;2022-09-27T10:48:33;5.00;;;2.35;;
47489;SDS011;33226;56.996;14.584;2022-09-27T10:51:03;4.70;;;2.03;;
47489;SDS011;33226;56.996;14.584;2022-09-27T10:53:31;3.65;;;1.63;;
47489;SDS011;33226;56.996;14.584;2022-09-27T10:55:59;3.42;;;1.67;;
47489;SDS011;33226;56.996;14.584;2022-09-27T11:00:58;2.17;;;1.42;;
47489;SDS011;33226;56.996;14.584;2022-09-27T11:03:36;3.90;;;1.60;;
47489;SDS011;33226;56.996;14.584;2022-09-27T11:08:48;1.77;;;1.20;;
47489;SDS011;33226;56.996;14.584;2022-09-27T11:14:03;2.47;;;1.33;;
47489;SDS011;33226;56.996;14.584;2022-09-27T11:22:01;3.35;;;1.40;;
47489;SDS011;33226;56.996;14.584;2022-09-27T11:24:45;4.63;;;1.40;;
47489;SDS011;33226;56.996;14.584;2022-09-27T11:44:01;2.92;;;1.35;;
47489;SDS011;33226;56.996;14.584;2022-09-27T11:46:46;3.40;;;1.20;;
47489;SDS011;33226;56.996;14.584;2022-09-27T11:57:45;4.50;;;2.05;;
47489;SDS011;33226;56.996;14.584;2022-09-27T12:13:55;3.75;;;2.15;;
47489;SDS011;33226;56.996;14.584;2022-09-27T12:16:38;5.85;;;2.00;;
47489;SDS011;33226;56.996;14.584;2022-09-27T12:19:05;6.90;;;2.60;;
47489;SDS011;33226;56.996;14.584;2022-09-27T12:21:42;6.22;;;2.35;;
47489;SDS011;33226;56.996;14.584;2022-09-27T12:24:10;5.53;;;2.40;;
47489;SDS011;33226;56.996;14.584;2022-09-27T12:26:45;3.80;;;2.38;;
47489;SDS011;33226;56.996;14.584;2022-09-27T12:29:21;4.72;;;2.53;;
47489;SDS011;33226;56.996;14.584;2022-09-27T12:35:17;7.72;;;3.17;;
47489;SDS011;33226;56.996;14.584;2022-09-27T12:38:00;4.60;;;2.70;;
47489;SDS011;33226;56.996;14.584;2022-09-27T12:40:52;6.40;;;2.88;;
47489;SDS011;33226;56.996;14.584;2022-09-27T12:43:22;5.82;;;2.83;;
47489;SDS011;33226;56.996;14.584;2022-09-27T12:51:19;9.15;;;3.50;;
47489;SDS011;33226;56.996;14.584;2022-09-27T12:56:44;5.57;;;2.50;;
47489;SDS011;33226;56.996;14.584;2022-09-27T12:59:33;4.82;;;2.45;;
47489;SDS011;33226;56.996;14.584;2022-09-27T13:05:04;2.03;;;1.50;;
47489;SDS011;33226;56.996;14.584;2022-09-27T13:07:44;3.28;;;1.52;;
47489;SDS011;33226;56.996;14.584;2022-09-27T13:10:30;2.20;;;1.58;;
47489;SDS011;33226;56.996;14.584;2022-09-27T13:12:59;2.58;;;1.00;;
47489;SDS011;33226;56.996;14.584;2022-09-27T13:15:30;2.78;;;1.42;;
47489;SDS011;33226;56.996;14.584;2022-09-27T13:18:00;2.33;;;1.40;;
47489;SDS011;33226;56.996;14.584;2022-09-27T13:25:47;0.90;;;0.90;;
47489;SDS011;33226;56.996;14.584;2022-09-27T13:31:01;1.83;;;1.30;;
47489;SDS011;33226;56.996;14.584;2022-09-27T13:38:37;1.88;;;1.33;;
47489;SDS011;33226;56.996;14.584;2022-09-27T13:41:18;1.30;;;1.20;;
47489;SDS011;33226;56.996;14.584;2022-09-27T13:43:50;1.50;;;1.40;;
47489;SDS011;33226;56.996;14.584;2022-09-27T13:46:23;1.65;;;1.10;;
47489;SDS011;33226;56.996;14.584;2022-09-27T13:51:28;1.40;;;1.00;;
47489;SDS011;33226;56.996;14.584;2022-09-27T13:56:57;1.40;;;1.30;;
47489;SDS011;33226;56.996;14.584;2022-09-27T14:04:41;3.63;;;1.10;;
47489;SDS011;33226;56.996;14.584;2022-09-27T14:07:13;1.10;;;1.10;;
47489;SDS011;33226;56.996;14.584;2022-09-27T14:09:43;3.80;;;1.10;;
47489;SDS011;33226;56.996;14.584;2022-09-27T14:12:15;1.42;;;1.15;;
47489;SDS011;33226;56.996;14.584;2022-09-27T14:14:47;2.47;;;1.15;;
47489;SDS011;33226;56.996;14.584;2022-09-27T14:17:14;1.05;;;1.05;;
47489;SDS011;33226;56.996;14.584;2022-09-27T14:19:41;1.10;;;1.10;;
47489;SDS011;33226;56.996;14.584;2022-09-27T14:22:15;1.70;;;1.30;;
47489;SDS011;33226;56.996;14.584;2022-09-27T14:24:44;4.45;;;1.02;;
47489;SDS011;33226;56.996;14.584;2022-09-27T14:27:18;2.88;;;1.52;;
47489;SDS011;33226;56.996;14.584;2022-09-27T14:29:47;1.92;;;1.20;;
47489;SDS011;33226;56.996;14.584;2022-09-27T14:32:22;3.35;;;1.40;;
47489;SDS011;33226;56.996;14.584;2022-09-27T14:37:30;1.42;;;1.33;;
47489;SDS011;33226;56.996;14.584;2022-09-27T14:40:03;1.95;;;1.60;;
47489;SDS011;33226;56.996;14.584;2022-09-27T14:42:35;1.55;;;1.45;;
47489;SDS011;33226;56.996;14.584;2022-09-27T14:45:03;2.10;;;1.27;;
47489;SDS011;33226;56.996;14.584;2022-09-27T14:47:45;1.83;;;1.40;;
47489;SDS011;33226;56.996;14.584;2022-09-27T14:50:22;6.65;;;1.60;;
47489;SDS011;33226;56.996;14.584;2022-09-27T14:52:49;1.60;;;1.50;;
47489;SDS011;33226;56.996;14.584;2022-09-27T14:55:20;1.73;;;1.63;;
47489;SDS011;33226;56.996;14.584;2022-09-27T14:57:51;7.10;;;1.70;;
47489;SDS011;33226;56.996;14.584;2022-09-27T15:00:24;1.65;;;1.55;;
47489;SDS011;33226;56.996;14.584;2022-09-27T15:02:56;4.57;;;1.80;;
47489;SDS011;33226;56.996;14.584;2022-09-27T15:05:29;2.40;;;2.00;;
47489;SDS011;33226;56.996;14.584;2022-09-27T15:07:57;3.33;;;1.45;;
47489;SDS011;33226;56.996;14.584;2022-09-27T15:10:27;2.38;;;1.60;;
47489;SDS011;33226;56.996;14.584;2022-09-27T15:12:55;3.30;;;1.80;;
47489;SDS011;33226;56.996;14.584;2022-09-27T15:15:26;2.42;;;1.50;;
47489;SDS011;33226;56.996;14.584;2022-09-27T15:17:57;3.15;;;2.30;;
47489;SDS011;33226;56.996;14.584;2022-09-27T15:22:52;10.75;;;3.65;;
47489;SDS011;33226;56.996;14.584;2022-09-27T15:25:21;13.48;;;6.70;;
47489;SDS011;33226;56.996;14.584;2022-09-27T15:28:04;5.10;;;4.55;;
47489;SDS011;33226;56.996;14.584;2022-09-27T15:31:03;6.80;;;5.60;;
47489;SDS011;33226;56.996;14.584;2022-09-27T15:33:30;3.97;;;3.05;;
47489;SDS011;33226;56.996;14.584;2022-09-27T15:35:58;2.75;;;2.55;;
47489;SDS011;33226;56.996;14.584;2022-09-27T15:38:29;3.67;;;3.22;;
47489;SDS011;33226;56.996;14.584;2022-09-27T15:40:57;4.45;;;2.58;;
47489;SDS011;33226;56.996;14.584;2022-09-27T15:43:38;6.60;;;2.47;;
47489;SDS011;33226;56.996;14.584;2022-09-27T15:51:50;5.95;;;3.05;;
47489;SDS011;33226;56.996;14.584;2022-09-27T15:54:18;4.30;;;2.50;;
47489;SDS011;33226;56.996;14.584;2022-09-27T15:56:45;3.40;;;2.45;;
47489;SDS011;33226;56.996;14.584;2022-09-27T15:59:15;5.43;;;2.75;;
47489;SDS011;33226;56.996;14.584;2022-09-27T16:01:43;3.58;;;2.90;;
47489;SDS011;33226;56.996;14.584;2022-09-27T16:04:09;5.35;;;2.92;;
47489;SDS011;33226;56.996;14.584;2022-09-27T16:06:34;5.35;;;3.40;;
47489;SDS011;33226;56.996;14.584;2022-09-27T16:09:00;4.63;;;2.80;;
47489;SDS011;33226;56.996;14.584;2022-09-27T16:11:25;5.05;;;2.72;;
47489;SDS011;33226;56.996;14.584;2022-09-27T16:13:51;6.93;;;3.10;;
47489;SDS011;33226;56.996;14.584;2022-09-27T16:16:19;7.03;;;3.20;;
47489;SDS011;33226;56.996;14.584;2022-09-27T16:18:45;4.90;;;2.97;;
47489;SDS011;33226;56.996;14.584;2022-09-27T16:21:11;5.82;;;3.10;;
47489;SDS011;33226;56.996;14.584;2022-09-27T16:23:37;6.63;;;4.88;;
47489;SDS011;33226;56.996;14.584;2022-09-27T16:26:03;7.13;;;5.18;;
47489;SDS011;33226;56.996;14.584;2022-09-27T16:28:29;15.93;;;9.13;;
47489;SDS011;33226;56.996;14.584;2022-09-27T16:31:00;19.02;;;11.10;;
47489;SDS011;33226;56.996;14.584;2022-09-27T16:33:27;23.50;;;12.48;;
47489;SDS011;33226;56.996;14.584;2022-09-27T16:35:53;22.98;;;11.85;;
47489;SDS011;33226;56.996;14.584;2022-09-27T16:38:19;14.88;;;7.35;;
47489;SDS011;33226;56.996;14.584;2022-09-27T16:40:45;6.20;;;4.90;;
47489;SDS011;33226;56.996;14.584;2022-09-27T16:43:11;8.00;;;5.65;;
47489;SDS011;33226;56.996;14.584;2022-09-27T16:45:37;6.05;;;3.60;;
47489;SDS011;33226;56.996;14.584;2022-09-27T16:48:02;4.13;;;3.72;;
47489;SDS011;33226;56.996;14.584;2022-09-27T16:50:28;4.90;;;3.80;;
47489;SDS011;33226;56.996;14.584;2022-09-27T16:53:12;6.53;;;3.88;;
47489;SDS011;33226;56.996;14.584;2022-09-27T16:55:38;4.10;;;3.70;;
47489;SDS011;33226;56.996;14.584;2022-09-27T16:58:03;5.45;;;4.10;;
47489;SDS011;33226;56.996;14.584;2022-09-27T17:00:31;4.53;;;3.70;;
47489;SDS011;33226;56.996;14.584;2022-09-27T17:02:57;5.22;;;3.88;;
47489;SDS011;33226;56.996;14.584;2022-09-27T17:05:23;7.50;;;4.32;;
47489;SDS011;33226;56.996;14.584;2022-09-27T17:07:50;4.55;;;3.95;;
47489;SDS011;33226;56.996;14.584;2022-09-27T17:10:17;4.75;;;4.25;;
47489;SDS011;33226;56.996;14.584;2022-09-27T17:12:43;6.30;;;4.10;;
47489;SDS011;33226;56.996;14.584;2022-09-27T17:15:10;7.90;;;4.90;;
47489;SDS011;33226;56.996;14.584;2022-09-27T17:17:36;5.50;;;4.40;;
47489;SDS011;33226;56.996;14.584;2022-09-27T17:20:02;7.10;;;5.30;;
47489;SDS011;33226;56.996;14.584;2022-09-27T17:22:29;7.82;;;7.03;;
47489;SDS011;33226;56.996;14.584;2022-09-27T17:24:55;6.20;;;5.60;;
47489;SDS011;33226;56.996;14.584;2022-09-27T17:27:21;9.32;;;5.45;;
47489;SDS011;33226;56.996;14.584;2022-09-27T17:29:48;6.43;;;5.00;;
47489;SDS011;33226;56.996;14.584;2022-09-27T17:32:14;5.95;;;5.35;;
47489;SDS011;33226;56.996;14.584;2022-09-27T17:34:40;6.68;;;5.72;;
47489;SDS011;33226;56.996;14.584;2022-09-27T17:37:07;7.15;;;5.43;;
47489;SDS011;33226;56.996;14.584;2022-09-27T17:39:34;5.70;;;5.20;;
47489;SDS011;33226;56.996;14.584;2022-09-27T17:42:01;8.63;;;5.40;;
47489;SDS011;33226;56.996;14.584;2022-09-27T17:44:26;6.57;;;5.97;;
47489;SDS011;33226;56.996;14.584;2022-09-27T17:46:52;7.70;;;5.75;;
47489;SDS011;33226;56.996;14.584;2022-09-27T17:49:38;8.95;;;5.85;;
47489;SDS011;33226;56.996;14.584;2022-09-27T17:52:22;7.43;;;5.15;;